MUC | München Airways

 METAR UND TAF INFORMATION

METAR FOR GOBD
ADDS - METARS form results

(0514 UTC 23 March 2019)
Data provider http://aviationweather.gov/metar/data/
 
METAR text: GOBD 230500Z 34008KT 7000 FEW014 18/16 Q1013 NOSIG
Conditions at: GOBD (DAKAR/DIAGNE , SN) observed 0500 UTC 23 March 2019
Temperature: 18.0°C (64°F)
Dewpoint: 16.0°C (61°F) [RH = 88%]
Pressure (altimeter): 29.91 inches Hg (1013.0 mb)
Winds: from the NNW (340 degrees) at 9 MPH (8 knots; 4.1 m/s)
Visibility: 4 miles ( 7 km)
Ceiling: at least 12,000 feet AGL
Clouds: few clouds at 1400 feet AGL
Weather: no significant weather observed at this time

METAR text: GOBD 230430Z 33008KT 7000 FEW014 18/16 Q1013 NOSIG
Conditions at: GOBD (DAKAR/DIAGNE , SN) observed 0430 UTC 23 March 2019
Temperature: 18.0°C (64°F)
Dewpoint: 16.0°C (61°F) [RH = 88%]
Pressure (altimeter): 29.91 inches Hg (1013.0 mb)
Winds: from the NNW (330 degrees) at 9 MPH (8 knots; 4.1 m/s)
Visibility: 4 miles ( 7 km)
Ceiling: at least 12,000 feet AGL
Clouds: few clouds at 1400 feet AGL
Weather: no significant weather observed at this time

Forecast for: GOBD (DAKAR/DIAGNE , SN)
Text: TAF GOBD 222330Z 2300/2406 34012KT 7000 NSC
Forecast period: 0000 UTC 23 March 2019 to 0600 UTC 24 March 2019
Forecast type: FROM: standard forecast or significant change
Winds: from the NNW (340 degrees) at 14 MPH (12 knots; 6.2 m/s)
Visibility: 4 miles (7 km)
Ceiling: unknown
Clouds: missing
Weather: no significant weather forecast for this period

 FLUGHAFENKARTE

 RUNWAY INFORMATION

 AIRPORT FREQUENCIES

 AIRPORT NEAR NAVIGATION AIDS